Wallace, Alabama
Current Conditions -  °F | °C
As of 3:53 AM on Sunday 21 Dec 2014 (Local Time) from KGZH Reporting Station
Haze Haze  
Wind Chill: 52°   Ceiling: 500
Heat Index: 52°   Visibility: 6mi
Dew Point: 49°   Wind: 5mph
Humidity: 89%   Direction: 30°NNE
Pressure: 30.12"   Gusts: NA
Location:  31.165°N, 87.0243°W
Report Text: KGZH 210953Z AUTO 03004KT 6SM BR BKN005 OVC031 11/09 A3012 RMK AO2 CIG 004V009 SLP198 T01110094
Loading
Personal Weather Stations






























Interactive Weather Map New forecast layout! Learn more

10-Day Weather Forecast

Advertisements
Track Severe Weather on mobile